sensor_id;sensor_type;location;lat;lon;timestamp;P1;durP1;ratioP1;P2;durP2;ratioP2
4508;SDS011;2267;48.816;9.230;2022-12-13T00:01:29;23.03;;;21.00;;
4508;SDS011;2267;48.816;9.230;2022-12-13T00:03:58;22.40;;;20.30;;
4508;SDS011;2267;48.816;9.230;2022-12-13T00:06:27;23.20;;;20.63;;
4508;SDS011;2267;48.816;9.230;2022-12-13T00:08:56;25.67;;;23.17;;
4508;SDS011;2267;48.816;9.230;2022-12-13T00:11:23;25.47;;;22.97;;
4508;SDS011;2267;48.816;9.230;2022-12-13T00:13:50;23.70;;;21.50;;
4508;SDS011;2267;48.816;9.230;2022-12-13T00:16:18;24.33;;;22.03;;
4508;SDS011;2267;48.816;9.230;2022-12-13T00:18:51;25.10;;;22.70;;
4508;SDS011;2267;48.816;9.230;2022-12-13T00:21:21;25.10;;;22.80;;
4508;SDS011;2267;48.816;9.230;2022-12-13T00:23:49;24.27;;;21.93;;
4508;SDS011;2267;48.816;9.230;2022-12-13T00:26:18;25.23;;;22.83;;
4508;SDS011;2267;48.816;9.230;2022-12-13T00:28:46;25.00;;;22.50;;
4508;SDS011;2267;48.816;9.230;2022-12-13T00:31:15;26.83;;;24.23;;
4508;SDS011;2267;48.816;9.230;2022-12-13T00:34:02;25.20;;;22.80;;
4508;SDS011;2267;48.816;9.230;2022-12-13T00:36:29;27.37;;;24.73;;
4508;SDS011;2267;48.816;9.230;2022-12-13T00:38:56;26.63;;;24.03;;
4508;SDS011;2267;48.816;9.230;2022-12-13T00:41:27;26.70;;;24.17;;
4508;SDS011;2267;48.816;9.230;2022-12-13T00:43:55;27.70;;;25.10;;
4508;SDS011;2267;48.816;9.230;2022-12-13T00:46:23;24.83;;;22.53;;
4508;SDS011;2267;48.816;9.230;2022-12-13T00:48:51;28.97;;;26.07;;
4508;SDS011;2267;48.816;9.230;2022-12-13T00:51:20;25.97;;;23.67;;
4508;SDS011;2267;48.816;9.230;2022-12-13T00:53:47;28.17;;;25.37;;
4508;SDS011;2267;48.816;9.230;2022-12-13T00:56:16;27.10;;;24.57;;
4508;SDS011;2267;48.816;9.230;2022-12-13T00:58:46;28.60;;;25.77;;
4508;SDS011;2267;48.816;9.230;2022-12-13T01:01:18;28.33;;;25.60;;
4508;SDS011;2267;48.816;9.230;2022-12-13T01:03:50;30.87;;;27.43;;
4508;SDS011;2267;48.816;9.230;2022-12-13T01:06:20;28.53;;;25.93;;
4508;SDS011;2267;48.816;9.230;2022-12-13T01:09:05;27.87;;;25.13;;
4508;SDS011;2267;48.816;9.230;2022-12-13T01:11:37;26.63;;;23.97;;
4508;SDS011;2267;48.816;9.230;2022-12-13T01:14:04;28.60;;;25.90;;
4508;SDS011;2267;48.816;9.230;2022-12-13T01:16:31;28.80;;;26.00;;
4508;SDS011;2267;48.816;9.230;2022-12-13T01:18:58;27.73;;;25.03;;
4508;SDS011;2267;48.816;9.230;2022-12-13T01:21:28;27.17;;;24.70;;
4508;SDS011;2267;48.816;9.230;2022-12-13T01:23:59;28.20;;;25.50;;
4508;SDS011;2267;48.816;9.230;2022-12-13T01:26:29;28.33;;;25.53;;
4508;SDS011;2267;48.816;9.230;2022-12-13T01:28:56;29.87;;;27.00;;
4508;SDS011;2267;48.816;9.230;2022-12-13T01:31:24;28.17;;;25.67;;
4508;SDS011;2267;48.816;9.230;2022-12-13T01:33:51;29.60;;;26.60;;
4508;SDS011;2267;48.816;9.230;2022-12-13T01:36:19;27.90;;;25.13;;
4508;SDS011;2267;48.816;9.230;2022-12-13T01:38:53;27.83;;;25.07;;
4508;SDS011;2267;48.816;9.230;2022-12-13T01:41:24;28.03;;;25.33;;
4508;SDS011;2267;48.816;9.230;2022-12-13T01:43:54;28.57;;;25.87;;
4508;SDS011;2267;48.816;9.230;2022-12-13T01:46:22;30.37;;;27.57;;
4508;SDS011;2267;48.816;9.230;2022-12-13T01:48:55;29.30;;;26.40;;
4508;SDS011;2267;48.816;9.230;2022-12-13T01:51:27;29.40;;;26.50;;
4508;SDS011;2267;48.816;9.230;2022-12-13T01:53:59;29.50;;;26.70;;
4508;SDS011;2267;48.816;9.230;2022-12-13T01:56:30;30.57;;;27.77;;
4508;SDS011;2267;48.816;9.230;2022-12-13T01:59:06;29.23;;;26.53;;
4508;SDS011;2267;48.816;9.230;2022-12-13T02:01:35;30.60;;;27.73;;
4508;SDS011;2267;48.816;9.230;2022-12-13T02:04:03;28.20;;;25.37;;
4508;SDS011;2267;48.816;9.230;2022-12-13T02:06:34;29.90;;;27.10;;
4508;SDS011;2267;48.816;9.230;2022-12-13T02:09:04;29.47;;;26.70;;
4508;SDS011;2267;48.816;9.230;2022-12-13T02:11:34;27.50;;;24.87;;
4508;SDS011;2267;48.816;9.230;2022-12-13T02:14:03;27.50;;;25.00;;
4508;SDS011;2267;48.816;9.230;2022-12-13T02:21:56;29.73;;;26.97;;
4508;SDS011;2267;48.816;9.230;2022-12-13T02:30:50;27.70;;;25.03;;
4508;SDS011;2267;48.816;9.230;2022-12-13T02:33:29;30.43;;;27.33;;
4508;SDS011;2267;48.816;9.230;2022-12-13T02:38:38;28.50;;;25.90;;
4508;SDS011;2267;48.816;9.230;2022-12-13T02:41:13;30.97;;;28.03;;
4508;SDS011;2267;48.816;9.230;2022-12-13T02:43:54;29.90;;;27.00;;
4508;SDS011;2267;48.816;9.230;2022-12-13T02:46:48;28.90;;;26.27;;
4508;SDS011;2267;48.816;9.230;2022-12-13T02:49:19;30.57;;;27.50;;
4508;SDS011;2267;48.816;9.230;2022-12-13T02:51:49;30.77;;;27.80;;
4508;SDS011;2267;48.816;9.230;2022-12-13T02:54:17;29.90;;;27.03;;
4508;SDS011;2267;48.816;9.230;2022-12-13T02:56:54;28.73;;;25.93;;
4508;SDS011;2267;48.816;9.230;2022-12-13T02:59:23;29.10;;;26.47;;
4508;SDS011;2267;48.816;9.230;2022-12-13T03:05:15;30.57;;;27.63;;
4508;SDS011;2267;48.816;9.230;2022-12-13T03:10:48;31.60;;;28.50;;
4508;SDS011;2267;48.816;9.230;2022-12-13T03:18:48;30.93;;;27.93;;
4508;SDS011;2267;48.816;9.230;2022-12-13T03:21:17;28.47;;;25.57;;
4508;SDS011;2267;48.816;9.230;2022-12-13T03:23:45;28.40;;;25.70;;
4508;SDS011;2267;48.816;9.230;2022-12-13T03:26:13;28.17;;;25.47;;
4508;SDS011;2267;48.816;9.230;2022-12-13T03:28:52;29.03;;;26.10;;
4508;SDS011;2267;48.816;9.230;2022-12-13T03:31:19;27.10;;;24.60;;
4508;SDS011;2267;48.816;9.230;2022-12-13T03:33:46;28.40;;;25.80;;
4508;SDS011;2267;48.816;9.230;2022-12-13T03:36:14;29.40;;;26.50;;
4508;SDS011;2267;48.816;9.230;2022-12-13T03:38:44;29.67;;;26.80;;
4508;SDS011;2267;48.816;9.230;2022-12-13T03:41:14;29.93;;;27.03;;
4508;SDS011;2267;48.816;9.230;2022-12-13T03:43:43;28.37;;;25.67;;
4508;SDS011;2267;48.816;9.230;2022-12-13T03:46:10;28.80;;;25.80;;
4508;SDS011;2267;48.816;9.230;2022-12-13T03:48:37;30.20;;;27.30;;
4508;SDS011;2267;48.816;9.230;2022-12-13T03:51:04;29.30;;;26.30;;
4508;SDS011;2267;48.816;9.230;2022-12-13T03:53:31;29.30;;;26.47;;
4508;SDS011;2267;48.816;9.230;2022-12-13T03:56:03;29.20;;;26.40;;
4508;SDS011;2267;48.816;9.230;2022-12-13T03:58:31;28.33;;;25.43;;
4508;SDS011;2267;48.816;9.230;2022-12-13T04:01:09;30.47;;;27.50;;
4508;SDS011;2267;48.816;9.230;2022-12-13T04:03:38;30.67;;;27.67;;
4508;SDS011;2267;48.816;9.230;2022-12-13T04:06:07;29.97;;;26.83;;
4508;SDS011;2267;48.816;9.230;2022-12-13T04:08:35;27.90;;;25.17;;
4508;SDS011;2267;48.816;9.230;2022-12-13T04:11:03;26.90;;;24.20;;
4508;SDS011;2267;48.816;9.230;2022-12-13T04:13:50;27.93;;;25.30;;
4508;SDS011;2267;48.816;9.230;2022-12-13T04:16:18;29.47;;;26.53;;
4508;SDS011;2267;48.816;9.230;2022-12-13T04:18:46;29.27;;;26.43;;
4508;SDS011;2267;48.816;9.230;2022-12-13T04:21:12;28.80;;;25.93;;
4508;SDS011;2267;48.816;9.230;2022-12-13T04:23:42;28.70;;;26.00;;
4508;SDS011;2267;48.816;9.230;2022-12-13T04:26:09;29.27;;;26.50;;
4508;SDS011;2267;48.816;9.230;2022-12-13T04:28:36;30.23;;;27.33;;
4508;SDS011;2267;48.816;9.230;2022-12-13T04:31:03;29.27;;;26.30;;
4508;SDS011;2267;48.816;9.230;2022-12-13T04:33:29;30.90;;;27.90;;
4508;SDS011;2267;48.816;9.230;2022-12-13T04:35:58;28.90;;;26.20;;
4508;SDS011;2267;48.816;9.230;2022-12-13T04:38:25;28.70;;;25.90;;
4508;SDS011;2267;48.816;9.230;2022-12-13T04:40:51;28.50;;;25.70;;
4508;SDS011;2267;48.816;9.230;2022-12-13T04:43:18;31.10;;;28.03;;
4508;SDS011;2267;48.816;9.230;2022-12-13T04:45:45;30.50;;;27.63;;
4508;SDS011;2267;48.816;9.230;2022-12-13T04:48:12;30.10;;;24.70;;
4508;SDS011;2267;48.816;9.230;2022-12-13T04:50:56;28.70;;;25.77;;
4508;SDS011;2267;48.816;9.230;2022-12-13T04:53:27;30.43;;;27.33;;
4508;SDS011;2267;48.816;9.230;2022-12-13T04:55:55;27.87;;;25.17;;
4508;SDS011;2267;48.816;9.230;2022-12-13T04:58:21;28.63;;;25.80;;
4508;SDS011;2267;48.816;9.230;2022-12-13T05:00:48;29.93;;;26.90;;
4508;SDS011;2267;48.816;9.230;2022-12-13T05:03:15;29.97;;;26.97;;
4508;SDS011;2267;48.816;9.230;2022-12-13T05:05:42;29.93;;;27.13;;
4508;SDS011;2267;48.816;9.230;2022-12-13T05:08:09;30.33;;;27.23;;
4508;SDS011;2267;48.816;9.230;2022-12-13T05:10:36;28.67;;;25.80;;
4508;SDS011;2267;48.816;9.230;2022-12-13T05:13:03;29.20;;;26.30;;
4508;SDS011;2267;48.816;9.230;2022-12-13T05:15:32;28.30;;;25.40;;
4508;SDS011;2267;48.816;9.230;2022-12-13T05:18:00;28.30;;;25.60;;
4508;SDS011;2267;48.816;9.230;2022-12-13T05:20:36;26.13;;;23.50;;
4508;SDS011;2267;48.816;9.230;2022-12-13T05:23:04;26.80;;;21.23;;
4508;SDS011;2267;48.816;9.230;2022-12-13T05:25:31;29.80;;;26.73;;
4508;SDS011;2267;48.816;9.230;2022-12-13T05:27:59;26.63;;;23.93;;
4508;SDS011;2267;48.816;9.230;2022-12-13T05:30:36;27.60;;;24.80;;
4508;SDS011;2267;48.816;9.230;2022-12-13T05:33:03;28.80;;;26.00;;
4508;SDS011;2267;48.816;9.230;2022-12-13T05:35:30;29.07;;;26.30;;
4508;SDS011;2267;48.816;9.230;2022-12-13T05:37:57;26.40;;;23.90;;
4508;SDS011;2267;48.816;9.230;2022-12-13T05:40:24;27.00;;;24.40;;
4508;SDS011;2267;48.816;9.230;2022-12-13T05:42:52;28.30;;;25.40;;
4508;SDS011;2267;48.816;9.230;2022-12-13T05:45:27;26.70;;;22.00;;
4508;SDS011;2267;48.816;9.230;2022-12-13T05:47:55;25.67;;;23.20;;
4508;SDS011;2267;48.816;9.230;2022-12-13T05:50:22;25.07;;;22.57;;
4508;SDS011;2267;48.816;9.230;2022-12-13T05:52:49;26.57;;;23.87;;
4508;SDS011;2267;48.816;9.230;2022-12-13T05:55:16;27.30;;;24.70;;
4508;SDS011;2267;48.816;9.230;2022-12-13T05:57:44;26.77;;;24.07;;
4508;SDS011;2267;48.816;9.230;2022-12-13T06:00:16;27.73;;;24.83;;
4508;SDS011;2267;48.816;9.230;2022-12-13T06:02:55;26.10;;;23.70;;
4508;SDS011;2267;48.816;9.230;2022-12-13T06:05:26;26.27;;;23.60;;
4508;SDS011;2267;48.816;9.230;2022-12-13T06:07:54;24.77;;;22.37;;
4508;SDS011;2267;48.816;9.230;2022-12-13T06:10:23;25.93;;;23.33;;
4508;SDS011;2267;48.816;9.230;2022-12-13T06:13:00;27.83;;;25.13;;
4508;SDS011;2267;48.816;9.230;2022-12-13T06:15:46;24.17;;;21.77;;
4508;SDS011;2267;48.816;9.230;2022-12-13T06:18:13;26.00;;;23.40;;
4508;SDS011;2267;48.816;9.230;2022-12-13T06:20:40;25.90;;;23.40;;
4508;SDS011;2267;48.816;9.230;2022-12-13T06:23:07;25.30;;;21.97;;
4508;SDS011;2267;48.816;9.230;2022-12-13T06:25:37;24.43;;;20.10;;
4508;SDS011;2267;48.816;9.230;2022-12-13T06:28:03;25.90;;;23.33;;
4508;SDS011;2267;48.816;9.230;2022-12-13T06:30:30;27.50;;;24.70;;
4508;SDS011;2267;48.816;9.230;2022-12-13T06:32:57;27.40;;;24.70;;
4508;SDS011;2267;48.816;9.230;2022-12-13T06:35:25;27.47;;;24.57;;
4508;SDS011;2267;48.816;9.230;2022-12-13T06:37:54;27.17;;;24.43;;
4508;SDS011;2267;48.816;9.230;2022-12-13T06:40:26;25.93;;;23.47;;
4508;SDS011;2267;48.816;9.230;2022-12-13T06:42:56;26.03;;;23.43;;
4508;SDS011;2267;48.816;9.230;2022-12-13T06:45:24;26.47;;;23.97;;
4508;SDS011;2267;48.816;9.230;2022-12-13T06:47:51;27.53;;;24.93;;
4508;SDS011;2267;48.816;9.230;2022-12-13T06:50:17;26.57;;;23.90;;
4508;SDS011;2267;48.816;9.230;2022-12-13T06:52:45;27.40;;;23.90;;
4508;SDS011;2267;48.816;9.230;2022-12-13T06:55:12;26.87;;;24.37;;
4508;SDS011;2267;48.816;9.230;2022-12-13T06:57:39;26.70;;;24.00;;
4508;SDS011;2267;48.816;9.230;2022-12-13T07:00:07;27.03;;;24.30;;
4508;SDS011;2267;48.816;9.230;2022-12-13T07:02:35;26.53;;;24.03;;
4508;SDS011;2267;48.816;9.230;2022-12-13T07:05:03;26.73;;;24.03;;
4508;SDS011;2267;48.816;9.230;2022-12-13T07:07:31;25.77;;;23.27;;
4508;SDS011;2267;48.816;9.230;2022-12-13T07:09:57;27.17;;;24.53;;
4508;SDS011;2267;48.816;9.230;2022-12-13T07:12:24;25.63;;;23.33;;
4508;SDS011;2267;48.816;9.230;2022-12-13T07:14:51;28.27;;;25.53;;
4508;SDS011;2267;48.816;9.230;2022-12-13T07:17:18;27.13;;;24.70;;
4508;SDS011;2267;48.816;9.230;2022-12-13T07:20:00;26.70;;;24.20;;
4508;SDS011;2267;48.816;9.230;2022-12-13T07:22:28;26.70;;;24.20;;
4508;SDS011;2267;48.816;9.230;2022-12-13T07:25:00;28.37;;;25.67;;
4508;SDS011;2267;48.816;9.230;2022-12-13T07:27:28;26.73;;;24.13;;
4508;SDS011;2267;48.816;9.230;2022-12-13T07:29:55;28.57;;;25.87;;
4508;SDS011;2267;48.816;9.230;2022-12-13T07:32:23;28.60;;;22.20;;
4508;SDS011;2267;48.816;9.230;2022-12-13T07:34:50;25.83;;;23.40;;
4508;SDS011;2267;48.816;9.230;2022-12-13T07:37:17;28.77;;;26.03;;
4508;SDS011;2267;48.816;9.230;2022-12-13T07:39:55;26.33;;;23.73;;
4508;SDS011;2267;48.816;9.230;2022-12-13T07:42:29;26.33;;;23.67;;
4508;SDS011;2267;48.816;9.230;2022-12-13T07:44:56;27.43;;;24.77;;
4508;SDS011;2267;48.816;9.230;2022-12-13T07:47:27;24.83;;;22.30;;
4508;SDS011;2267;48.816;9.230;2022-12-13T07:49:55;26.83;;;24.27;;
4508;SDS011;2267;48.816;9.230;2022-12-13T07:52:22;27.10;;;24.60;;
4508;SDS011;2267;48.816;9.230;2022-12-13T07:54:49;27.10;;;22.30;;
4508;SDS011;2267;48.816;9.230;2022-12-13T07:57:16;28.50;;;25.63;;
4508;SDS011;2267;48.816;9.230;2022-12-13T07:59:43;25.77;;;23.33;;
4508;SDS011;2267;48.816;9.230;2022-12-13T08:02:11;26.83;;;24.23;;
4508;SDS011;2267;48.816;9.230;2022-12-13T08:04:38;31.90;;;23.30;;
4508;SDS011;2267;48.816;9.230;2022-12-13T08:07:07;24.73;;;20.57;;
4508;SDS011;2267;48.816;9.230;2022-12-13T08:09:35;25.57;;;23.17;;
4508;SDS011;2267;48.816;9.230;2022-12-13T08:12:02;25.37;;;22.97;;
4508;SDS011;2267;48.816;9.230;2022-12-13T08:14:30;23.83;;;20.90;;
4508;SDS011;2267;48.816;9.230;2022-12-13T08:16:57;24.83;;;22.27;;
4508;SDS011;2267;48.816;9.230;2022-12-13T08:19:25;23.90;;;21.70;;
4508;SDS011;2267;48.816;9.230;2022-12-13T08:21:51;24.53;;;22.10;;
4508;SDS011;2267;48.816;9.230;2022-12-13T08:24:26;25.20;;;22.67;;
4508;SDS011;2267;48.816;9.230;2022-12-13T08:26:55;26.53;;;23.93;;
4508;SDS011;2267;48.816;9.230;2022-12-13T08:29:27;25.67;;;20.50;;
4508;SDS011;2267;48.816;9.230;2022-12-13T08:32:01;23.27;;;19.90;;
4508;SDS011;2267;48.816;9.230;2022-12-13T08:34:29;25.20;;;22.60;;
4508;SDS011;2267;48.816;9.230;2022-12-13T08:36:57;49.20;;;25.80;;
4508;SDS011;2267;48.816;9.230;2022-12-13T08:39:28;41.73;;;27.33;;
4508;SDS011;2267;48.816;9.230;2022-12-13T08:42:01;35.27;;;26.37;;
4508;SDS011;2267;48.816;9.230;2022-12-13T08:44:47;25.90;;;23.27;;
4508;SDS011;2267;48.816;9.230;2022-12-13T08:47:16;25.80;;;21.93;;
4508;SDS011;2267;48.816;9.230;2022-12-13T08:49:51;25.83;;;23.17;;
4508;SDS011;2267;48.816;9.230;2022-12-13T08:52:20;24.83;;;22.30;;
4508;SDS011;2267;48.816;9.230;2022-12-13T08:54:48;24.70;;;22.37;;
4508;SDS011;2267;48.816;9.230;2022-12-13T08:57:14;24.50;;;21.90;;
4508;SDS011;2267;48.816;9.230;2022-12-13T08:59:41;23.07;;;20.60;;
4508;SDS011;2267;48.816;9.230;2022-12-13T09:02:13;22.67;;;20.43;;
4508;SDS011;2267;48.816;9.230;2022-12-13T09:04:40;23.50;;;21.00;;
4508;SDS011;2267;48.816;9.230;2022-12-13T09:07:07;22.50;;;20.10;;
4508;SDS011;2267;48.816;9.230;2022-12-13T09:09:34;22.40;;;20.17;;
4508;SDS011;2267;48.816;9.230;2022-12-13T09:12:03;20.90;;;18.80;;
4508;SDS011;2267;48.816;9.230;2022-12-13T09:14:36;23.77;;;21.47;;
4508;SDS011;2267;48.816;9.230;2022-12-13T09:17:11;22.30;;;19.97;;
4508;SDS011;2267;48.816;9.230;2022-12-13T09:19:50;22.77;;;20.00;;
4508;SDS011;2267;48.816;9.230;2022-12-13T09:22:24;21.90;;;19.70;;
4508;SDS011;2267;48.816;9.230;2022-12-13T09:24:59;21.57;;;19.37;;
4508;SDS011;2267;48.816;9.230;2022-12-13T09:27:28;20.67;;;18.70;;
4508;SDS011;2267;48.816;9.230;2022-12-13T09:30:05;20.20;;;18.50;;
4508;SDS011;2267;48.816;9.230;2022-12-13T09:32:33;21.47;;;19.47;;
4508;SDS011;2267;48.816;9.230;2022-12-13T09:35:00;20.50;;;18.70;;
4508;SDS011;2267;48.816;9.230;2022-12-13T09:37:27;19.70;;;17.90;;
4508;SDS011;2267;48.816;9.230;2022-12-13T09:39:54;19.50;;;17.67;;
4508;SDS011;2267;48.816;9.230;2022-12-13T09:42:22;20.13;;;18.13;;
4508;SDS011;2267;48.816;9.230;2022-12-13T09:45:03;20.20;;;18.40;;
4508;SDS011;2267;48.816;9.230;2022-12-13T09:47:47;18.03;;;16.23;;
4508;SDS011;2267;48.816;9.230;2022-12-13T09:50:21;19.13;;;17.27;;
4508;SDS011;2267;48.816;9.230;2022-12-13T09:53:04;19.70;;;17.80;;
4508;SDS011;2267;48.816;9.230;2022-12-13T09:55:38;19.80;;;17.80;;
4508;SDS011;2267;48.816;9.230;2022-12-13T09:58:26;18.53;;;16.73;;
4508;SDS011;2267;48.816;9.230;2022-12-13T10:00:54;19.13;;;17.20;;
4508;SDS011;2267;48.816;9.230;2022-12-13T10:03:23;20.10;;;17.83;;
4508;SDS011;2267;48.816;9.230;2022-12-13T10:09:09;20.13;;;17.40;;
4508;SDS011;2267;48.816;9.230;2022-12-13T10:11:23;18.80;;;17.03;;
4508;SDS011;2267;48.816;9.230;2022-12-13T10:14:02;17.73;;;16.03;;
4508;SDS011;2267;48.816;9.230;2022-12-13T10:21:54;16.23;;;14.63;;
4508;SDS011;2267;48.816;9.230;2022-12-13T10:27:18;16.57;;;15.00;;
4508;SDS011;2267;48.816;9.230;2022-12-13T10:32:29;17.47;;;15.77;;
4508;SDS011;2267;48.816;9.230;2022-12-13T10:35:20;17.27;;;15.50;;
4508;SDS011;2267;48.816;9.230;2022-12-13T10:38:00;16.73;;;15.03;;
4508;SDS011;2267;48.816;9.230;2022-12-13T10:40:57;16.33;;;14.73;;
4508;SDS011;2267;48.816;9.230;2022-12-13T10:43:26;18.00;;;16.20;;
4508;SDS011;2267;48.816;9.230;2022-12-13T10:51:27;17.67;;;15.93;;
4508;SDS011;2267;48.816;9.230;2022-12-13T10:54:04;16.67;;;15.00;;
4508;SDS011;2267;48.816;9.230;2022-12-13T10:56:42;18.47;;;16.67;;
4508;SDS011;2267;48.816;9.230;2022-12-13T11:02:00;19.30;;;17.40;;
4508;SDS011;2267;48.816;9.230;2022-12-13T11:04:45;19.73;;;16.80;;
4508;SDS011;2267;48.816;9.230;2022-12-13T11:07:22;21.07;;;18.93;;
4508;SDS011;2267;48.816;9.230;2022-12-13T11:09:57;21.80;;;19.60;;
4508;SDS011;2267;48.816;9.230;2022-12-13T11:13:01;21.20;;;19.20;;
4508;SDS011;2267;48.816;9.230;2022-12-13T11:15:30;22.43;;;19.07;;
4508;SDS011;2267;48.816;9.230;2022-12-13T11:18:00;21.93;;;19.63;;
4508;SDS011;2267;48.816;9.230;2022-12-13T11:20:32;20.60;;;18.60;;
4508;SDS011;2267;48.816;9.230;2022-12-13T11:23:05;21.33;;;19.00;;
4508;SDS011;2267;48.816;9.230;2022-12-13T11:25:40;20.33;;;18.23;;
4508;SDS011;2267;48.816;9.230;2022-12-13T11:28:19;20.93;;;18.97;;
4508;SDS011;2267;48.816;9.230;2022-12-13T11:39:17;21.43;;;19.43;;
4508;SDS011;2267;48.816;9.230;2022-12-13T11:47:24;20.00;;;18.07;;
4508;SDS011;2267;48.816;9.230;2022-12-13T11:49:54;19.50;;;17.57;;
4508;SDS011;2267;48.816;9.230;2022-12-13T11:52:27;19.53;;;17.50;;
4508;SDS011;2267;48.816;9.230;2022-12-13T11:55:31;24.47;;;19.57;;
4508;SDS011;2267;48.816;9.230;2022-12-13T11:58:19;20.87;;;18.67;;
4508;SDS011;2267;48.816;9.230;2022-12-13T12:01:15;20.97;;;18.97;;
4508;SDS011;2267;48.816;9.230;2022-12-13T12:03:47;20.10;;;18.10;;
4508;SDS011;2267;48.816;9.230;2022-12-13T12:06:21;20.13;;;18.30;;
4508;SDS011;2267;48.816;9.230;2022-12-13T12:09:10;21.30;;;19.13;;
4508;SDS011;2267;48.816;9.230;2022-12-13T12:11:57;19.30;;;17.30;;
4508;SDS011;2267;48.816;9.230;2022-12-13T12:17:18;22.33;;;19.93;;
4508;SDS011;2267;48.816;9.230;2022-12-13T12:19:50;21.40;;;16.90;;
4508;SDS011;2267;48.816;9.230;2022-12-13T12:27:49;20.50;;;17.20;;
4508;SDS011;2267;48.816;9.230;2022-12-13T12:30:37;20.23;;;17.10;;
4508;SDS011;2267;48.816;9.230;2022-12-13T12:33:25;20.97;;;17.47;;
4508;SDS011;2267;48.816;9.230;2022-12-13T12:44:39;21.00;;;18.80;;
4508;SDS011;2267;48.816;9.230;2022-12-13T12:58:14;20.00;;;17.73;;
4508;SDS011;2267;48.816;9.230;2022-12-13T13:03:51;41.50;;;20.93;;
4508;SDS011;2267;48.816;9.230;2022-12-13T13:06:32;26.40;;;17.70;;
4508;SDS011;2267;48.816;9.230;2022-12-13T13:09:04;21.80;;;19.10;;
4508;SDS011;2267;48.816;9.230;2022-12-13T13:11:36;20.23;;;18.13;;
4508;SDS011;2267;48.816;9.230;2022-12-13T13:16:57;24.57;;;18.60;;
4508;SDS011;2267;48.816;9.230;2022-12-13T13:21:58;20.40;;;17.80;;
4508;SDS011;2267;48.816;9.230;2022-12-13T13:24:27;23.47;;;18.17;;
4508;SDS011;2267;48.816;9.230;2022-12-13T13:26:59;24.50;;;18.20;;
4508;SDS011;2267;48.816;9.230;2022-12-13T13:29:44;23.43;;;18.00;;
4508;SDS011;2267;48.816;9.230;2022-12-13T13:34:57;22.40;;;17.90;;
4508;SDS011;2267;48.816;9.230;2022-12-13T13:40:47;24.67;;;16.70;;
4508;SDS011;2267;48.816;9.230;2022-12-13T13:43:15;32.00;;;19.60;;
4508;SDS011;2267;48.816;9.230;2022-12-13T13:45:58;31.40;;;17.23;;
4508;SDS011;2267;48.816;9.230;2022-12-13T14:09:58;18.57;;;15.37;;
4508;SDS011;2267;48.816;9.230;2022-12-13T14:18:23;23.37;;;17.00;;
4508;SDS011;2267;48.816;9.230;2022-12-13T14:21:45;20.63;;;15.10;;
4508;SDS011;2267;48.816;9.230;2022-12-13T14:23:54;19.07;;;13.40;;
4508;SDS011;2267;48.816;9.230;2022-12-13T14:29:26;12.67;;;11.40;;
4508;SDS011;2267;48.816;9.230;2022-12-13T14:31:57;12.90;;;11.60;;
4508;SDS011;2267;48.816;9.230;2022-12-13T14:34:28;12.10;;;10.80;;
4508;SDS011;2267;48.816;9.230;2022-12-13T14:36:58;14.63;;;12.87;;
4508;SDS011;2267;48.816;9.230;2022-12-13T14:39:27;16.53;;;13.07;;
4508;SDS011;2267;48.816;9.230;2022-12-13T14:41:57;18.17;;;13.23;;
4508;SDS011;2267;48.816;9.230;2022-12-13T14:44:28;21.50;;;14.40;;
4508;SDS011;2267;48.816;9.230;2022-12-13T14:47:02;15.10;;;13.50;;
4508;SDS011;2267;48.816;9.230;2022-12-13T14:49:33;18.70;;;14.37;;
4508;SDS011;2267;48.816;9.230;2022-12-13T14:52:07;14.53;;;13.20;;
4508;SDS011;2267;48.816;9.230;2022-12-13T14:54:54;18.30;;;13.90;;
4508;SDS011;2267;48.816;9.230;2022-12-13T14:57:27;15.80;;;14.13;;
4508;SDS011;2267;48.816;9.230;2022-12-13T14:59:55;14.30;;;12.80;;
4508;SDS011;2267;48.816;9.230;2022-12-13T15:02:28;15.63;;;13.60;;
4508;SDS011;2267;48.816;9.230;2022-12-13T15:04:58;16.37;;;14.80;;
4508;SDS011;2267;48.816;9.230;2022-12-13T15:07:39;17.80;;;15.97;;
4508;SDS011;2267;48.816;9.230;2022-12-13T15:12:40;14.90;;;12.90;;
4508;SDS011;2267;48.816;9.230;2022-12-13T15:20:45;14.40;;;12.40;;
4508;SDS011;2267;48.816;9.230;2022-12-13T15:25:49;13.20;;;11.80;;
4508;SDS011;2267;48.816;9.230;2022-12-13T15:28:28;13.30;;;12.00;;
4508;SDS011;2267;48.816;9.230;2022-12-13T15:30:58;15.60;;;12.77;;
4508;SDS011;2267;48.816;9.230;2022-12-13T15:33:27;13.57;;;12.17;;
4508;SDS011;2267;48.816;9.230;2022-12-13T15:38:35;16.13;;;12.90;;
4508;SDS011;2267;48.816;9.230;2022-12-13T15:41:05;14.10;;;11.50;;
4508;SDS011;2267;48.816;9.230;2022-12-13T15:43:42;13.20;;;11.87;;
4508;SDS011;2267;48.816;9.230;2022-12-13T15:46:13;14.10;;;12.50;;
4508;SDS011;2267;48.816;9.230;2022-12-13T15:48:48;12.60;;;11.37;;
4508;SDS011;2267;48.816;9.230;2022-12-13T15:51:16;11.87;;;10.63;;
4508;SDS011;2267;48.816;9.230;2022-12-13T15:54:06;17.90;;;13.77;;
4508;SDS011;2267;48.816;9.230;2022-12-13T15:59:25;14.43;;;12.90;;
4508;SDS011;2267;48.816;9.230;2022-12-13T16:01:53;13.03;;;11.73;;
4508;SDS011;2267;48.816;9.230;2022-12-13T16:04:25;14.63;;;13.13;;
4508;SDS011;2267;48.816;9.230;2022-12-13T16:06:54;14.40;;;11.73;;
4508;SDS011;2267;48.816;9.230;2022-12-13T16:09:21;13.10;;;11.73;;
4508;SDS011;2267;48.816;9.230;2022-12-13T16:11:58;13.37;;;11.90;;
4508;SDS011;2267;48.816;9.230;2022-12-13T16:17:01;14.57;;;13.07;;
4508;SDS011;2267;48.816;9.230;2022-12-13T16:19:40;16.20;;;12.07;;
4508;SDS011;2267;48.816;9.230;2022-12-13T16:22:07;14.43;;;12.97;;
4508;SDS011;2267;48.816;9.230;2022-12-13T16:24:34;14.07;;;12.57;;
4508;SDS011;2267;48.816;9.230;2022-12-13T16:27:01;14.70;;;13.30;;
4508;SDS011;2267;48.816;9.230;2022-12-13T16:29:33;15.37;;;13.37;;
4508;SDS011;2267;48.816;9.230;2022-12-13T16:32:01;14.90;;;13.43;;
4508;SDS011;2267;48.816;9.230;2022-12-13T16:34:34;15.53;;;13.07;;
4508;SDS011;2267;48.816;9.230;2022-12-13T16:37:04;17.13;;;15.40;;
4508;SDS011;2267;48.816;9.230;2022-12-13T16:39:52;19.33;;;15.40;;
4508;SDS011;2267;48.816;9.230;2022-12-13T16:42:19;19.57;;;14.03;;
4508;SDS011;2267;48.816;9.230;2022-12-13T16:44:51;16.83;;;15.00;;
4508;SDS011;2267;48.816;9.230;2022-12-13T16:47:38;17.00;;;14.77;;
4508;SDS011;2267;48.816;9.230;2022-12-13T16:50:14;16.67;;;14.90;;
4508;SDS011;2267;48.816;9.230;2022-12-13T16:52:43;15.77;;;14.33;;
4508;SDS011;2267;48.816;9.230;2022-12-13T16:55:10;15.20;;;13.70;;
4508;SDS011;2267;48.816;9.230;2022-12-13T16:57:37;16.97;;;15.30;;
4508;SDS011;2267;48.816;9.230;2022-12-13T17:00:04;15.93;;;13.93;;
4508;SDS011;2267;48.816;9.230;2022-12-13T17:02:35;15.37;;;13.90;;
4508;SDS011;2267;48.816;9.230;2022-12-13T17:05:03;15.93;;;14.53;;
4508;SDS011;2267;48.816;9.230;2022-12-13T17:07:31;15.93;;;14.43;;
4508;SDS011;2267;48.816;9.230;2022-12-13T17:09:58;17.57;;;15.77;;
4508;SDS011;2267;48.816;9.230;2022-12-13T17:12:25;17.07;;;15.10;;
4508;SDS011;2267;48.816;9.230;2022-12-13T17:14:51;17.43;;;15.67;;
4508;SDS011;2267;48.816;9.230;2022-12-13T17:17:19;16.33;;;14.83;;
4508;SDS011;2267;48.816;9.230;2022-12-13T17:19:46;18.73;;;16.93;;
4508;SDS011;2267;48.816;9.230;2022-12-13T17:22:13;19.10;;;17.10;;
4508;SDS011;2267;48.816;9.230;2022-12-13T17:24:40;18.13;;;16.27;;
4508;SDS011;2267;48.816;9.230;2022-12-13T17:27:07;18.07;;;16.20;;
4508;SDS011;2267;48.816;9.230;2022-12-13T17:29:33;17.87;;;16.17;;
4508;SDS011;2267;48.816;9.230;2022-12-13T17:32:00;20.20;;;17.80;;
4508;SDS011;2267;48.816;9.230;2022-12-13T17:34:27;19.10;;;17.13;;
4508;SDS011;2267;48.816;9.230;2022-12-13T17:36:54;16.53;;;14.90;;
4508;SDS011;2267;48.816;9.230;2022-12-13T17:39:22;16.10;;;14.50;;
4508;SDS011;2267;48.816;9.230;2022-12-13T17:41:50;17.47;;;15.50;;
4508;SDS011;2267;48.816;9.230;2022-12-13T17:44:21;18.27;;;16.50;;
4508;SDS011;2267;48.816;9.230;2022-12-13T17:46:48;16.37;;;14.63;;